Rota Mariana Islands, Northern Mariana Islands
Current Conditions -  °F | °C
As of 6:55 PM on Monday 20 Oct 2014 (Local Time) from PGRO Reporting Station
Few Clouds Few Clouds  
Wind Chill: 79°   Ceiling: Unl
Heat Index: 82°   Visibility: 7mi
Dew Point: 75°   Wind: 7mph
Humidity: 89%   Direction: 30°NNE
Pressure: 29.83"   Gusts: NA
Location:  14.17°N, 145.25°E
Report Text: PGRO 200855Z 03006KT 7SM FEW030 26/24 A2983
Loading
Personal Weather Stations






























Interactive Weather Map
Tropical Storm Tracking
New forecast layout! Learn more

10-Day Weather Forecast

Advertisements
Track Severe Weather on mobile